createdAt,value
2018-04-27T00:00:26.469Z,13.74
2018-04-27T00:02:57.528Z,13.60
2018-04-27T00:05:28.608Z,13.44
2018-04-27T00:07:59.661Z,13.31
2018-04-27T00:10:30.703Z,13.18
2018-04-27T00:13:01.803Z,13.05
2018-04-27T00:15:32.818Z,12.95
2018-04-27T00:18:03.859Z,12.85
2018-04-27T00:20:34.863Z,12.77
2018-04-27T00:23:05.897Z,12.75
2018-04-27T00:25:36.972Z,12.75
2018-04-27T00:28:08.022Z,12.71
2018-04-27T00:30:39.083Z,12.68
2018-04-27T00:33:10.184Z,12.60
2018-04-27T00:35:41.217Z,12.51
2018-04-27T00:38:12.284Z,12.40
2018-04-27T00:40:43.325Z,12.31
2018-04-27T00:43:14.357Z,12.26
2018-04-27T00:45:45.389Z,12.23
2018-04-27T00:48:16.439Z,12.23
2018-04-27T00:50:47.518Z,12.24
2018-04-27T00:53:18.573Z,12.27
2018-04-27T00:55:49.643Z,12.32
2018-04-27T00:58:20.707Z,12.32
2018-04-27T01:00:51.792Z,12.29
2018-04-27T01:03:22.894Z,12.23
2018-04-27T01:05:53.916Z,12.16
2018-04-27T01:08:24.940Z,12.13
2018-04-27T01:10:55.949Z,12.06
2018-04-27T01:13:26.998Z,12.02
2018-04-27T01:15:58.037Z,12.04
2018-04-27T01:18:29.091Z,12.06
2018-04-27T01:21:00.182Z,12.01
2018-04-27T01:23:31.939Z,12.03
2018-04-27T01:26:02.998Z,12.07
2018-04-27T01:28:34.065Z,12.10
2018-04-27T01:31:05.127Z,12.12
2018-04-27T01:33:36.180Z,12.11
2018-04-27T01:36:07.225Z,12.07
2018-04-27T01:38:38.251Z,12.04
2018-04-27T01:41:09.275Z,12.00
2018-04-27T01:43:40.330Z,11.96
2018-04-27T01:46:11.445Z,11.91
2018-04-27T01:48:42.503Z,11.88
2018-04-27T01:51:13.538Z,11.84
2018-04-27T01:53:44.628Z,11.77
2018-04-27T01:56:15.705Z,11.72
2018-04-27T01:58:46.740Z,11.64
2018-04-27T02:01:17.727Z,11.56
2018-04-27T02:03:48.772Z,11.51
2018-04-27T02:06:19.775Z,11.50
2018-04-27T02:08:50.840Z,11.49
2018-04-27T02:11:21.889Z,11.46
2018-04-27T02:13:52.953Z,11.46
2018-04-27T02:16:23.996Z,11.45
2018-04-27T02:18:55.044Z,11.46
2018-04-27T02:21:26.072Z,11.45
2018-04-27T02:23:57.078Z,11.39
2018-04-27T02:26:28.116Z,11.30
2018-04-27T02:28:59.126Z,11.22
2018-04-27T02:31:30.181Z,11.14
2018-04-27T02:34:01.169Z,11.08
2018-04-27T02:36:32.210Z,11.02
2018-04-27T02:39:03.288Z,10.99
2018-04-27T02:41:34.319Z,10.99
2018-04-27T02:44:05.337Z,10.93
2018-04-27T02:46:36.445Z,10.87
2018-04-27T02:49:07.446Z,10.79
2018-04-27T03:06:16.880Z,10.40
2018-04-27T03:08:48.755Z,10.44
2018-04-27T03:11:19.774Z,10.49
2018-04-27T03:13:50.763Z,10.54
2018-04-27T03:16:36.837Z,10.57
2018-04-27T03:19:15.959Z,10.61
2018-04-27T03:30:36.295Z,10.80
